createdAt,value
2024-01-14T00:00:45.472Z,-0.10
2024-01-14T00:05:50.635Z,-0.10
2024-01-14T00:10:54.142Z,-0.11
2024-01-14T00:15:58.387Z,-0.11
2024-01-14T00:21:01.298Z,-0.08
2024-01-14T00:26:04.184Z,-0.16
2024-01-14T00:31:08.519Z,-0.16
2024-01-14T00:36:11.788Z,-0.17
2024-01-14T00:41:15.976Z,-0.17
2024-01-14T00:46:20.468Z,-0.17
2024-01-14T00:51:23.451Z,-0.23
2024-01-14T00:56:27.237Z,-0.19
2024-01-14T01:01:32.930Z,-0.23
2024-01-14T01:06:37.116Z,-0.29
2024-01-14T01:11:41.401Z,-0.26
2024-01-14T01:16:46.556Z,-0.26
2024-01-14T01:21:50.028Z,-0.25
2024-01-14T01:26:55.401Z,-0.22
2024-01-14T01:32:06.995Z,-0.24
2024-01-14T01:37:11.975Z,-0.23
2024-01-14T01:42:15.422Z,-0.28
2024-01-14T01:47:22.349Z,-0.26
2024-01-14T01:52:26.968Z,-0.25
2024-01-14T01:57:30.425Z,-0.28
2024-01-14T02:02:35.037Z,-0.33
2024-01-14T02:07:38.728Z,-0.31
2024-01-14T02:12:41.657Z,-0.29
2024-01-14T02:17:45.881Z,-0.31
2024-01-14T02:22:51.335Z,-0.34
2024-01-14T02:27:55.942Z,-0.34
2024-01-14T02:32:58.965Z,-0.29
2024-01-14T02:38:04.746Z,-0.32
2024-01-14T02:43:09.394Z,-0.35
2024-01-14T02:48:12.794Z,-0.38
2024-01-14T02:53:15.715Z,-0.38
2024-01-14T02:58:19.994Z,-0.39
2024-01-14T03:03:24.034Z,-0.40
2024-01-14T03:08:27.180Z,-0.35
2024-01-14T03:13:31.356Z,-0.40
2024-01-14T03:18:34.993Z,-0.35
2024-01-14T03:23:37.994Z,-0.36
2024-01-14T03:28:42.266Z,-0.34
2024-01-14T03:33:46.032Z,-0.33
2024-01-14T03:38:49.163Z,-0.32
2024-01-14T03:43:54.621Z,-0.29
2024-01-14T03:48:58.362Z,-0.30
2024-01-14T03:54:01.426Z,-0.28
2024-01-14T03:59:05.628Z,-0.23
2024-01-14T04:04:08.649Z,-0.24
2024-01-14T04:09:12.233Z,-0.25
2024-01-14T04:14:17.165Z,-0.24
2024-01-14T04:19:20.167Z,-0.28
2024-01-14T04:24:23.846Z,-0.33
2024-01-14T04:29:28.405Z,-0.30
2024-01-14T04:34:31.684Z,-0.35
2024-01-14T04:39:34.674Z,-0.31
2024-01-14T04:44:39.195Z,-0.31
2024-01-14T04:49:43.537Z,-0.32
2024-01-14T04:54:46.489Z,-0.32
2024-01-14T04:59:50.735Z,-0.35
2024-01-14T05:04:54.029Z,-0.32
2024-01-14T05:09:57.164Z,-0.33
2024-01-14T05:15:01.689Z,-0.32
2024-01-14T05:20:05.868Z,-0.32
2024-01-14T05:25:09.188Z,-0.33
2024-01-14T05:30:15.873Z,-0.38
2024-01-14T05:35:18.789Z,-0.35
2024-01-14T05:40:21.820Z,-0.35
2024-01-14T05:45:26.975Z,-0.35
2024-01-14T05:50:29.945Z,-0.36
2024-01-14T05:55:32.848Z,-0.42
2024-01-14T06:00:37.183Z,-0.44
2024-01-14T06:05:40.128Z,-0.46
2024-01-14T06:10:43.116Z,-0.47
2024-01-14T06:15:47.286Z,-0.50
2024-01-14T06:20:50.454Z,-0.50
2024-01-14T06:25:54.026Z,-0.49
2024-01-14T06:30:59.670Z,-0.48
2024-01-14T06:36:07.970Z,-0.50
2024-01-14T06:41:12.362Z,-0.54
2024-01-14T06:46:17.529Z,-0.54
2024-01-14T06:51:20.433Z,-0.60
2024-01-14T06:56:23.266Z,-0.65
2024-01-14T07:01:28.012Z,-0.64
2024-01-14T07:06:30.894Z,-0.72
2024-01-14T07:11:33.811Z,-0.73
2024-01-14T07:16:38.134Z,-0.76
2024-01-14T07:21:41.046Z,-0.77
2024-01-14T07:26:44.205Z,-0.82
2024-01-14T07:31:48.667Z,-0.86
2024-01-14T07:36:52.669Z,-0.79
2024-01-14T07:41:56.950Z,-0.81
2024-01-14T07:47:01.344Z,-0.76
2024-01-14T07:52:05.860Z,-0.78
2024-01-14T07:57:09.481Z,-0.74
2024-01-14T08:02:16.443Z,-0.71
2024-01-14T08:07:19.919Z,-0.71
2024-01-14T08:12:23.194Z,-0.75
2024-01-14T08:17:28.136Z,-0.73
2024-01-14T08:22:33.680Z,-0.70
2024-01-14T08:27:36.800Z,-0.71
2024-01-14T08:32:41.601Z,-0.57
2024-01-14T08:37:48.294Z,-0.54
2024-01-14T08:42:53.377Z,-0.49
2024-01-14T08:47:58.319Z,-0.47
2024-01-14T08:53:02.032Z,-0.35
2024-01-14T08:58:05.262Z,-0.37
2024-01-14T09:03:09.547Z,-0.29
2024-01-14T09:08:12.454Z,-0.17
2024-01-14T09:13:16.280Z,-0.13
2024-01-14T09:18:20.796Z,0.11
2024-01-14T09:23:24.132Z,0.30
2024-01-14T09:28:27.097Z,0.43
2024-01-14T09:33:33.275Z,0.40
2024-01-14T09:38:36.876Z,0.52
2024-01-14T09:43:43.910Z,0.43
2024-01-14T09:48:51.912Z,0.45
2024-01-14T09:53:57.801Z,0.32
2024-01-14T09:59:05.257Z,0.33
2024-01-14T10:04:09.697Z,0.19
2024-01-14T10:09:12.834Z,0.28
2024-01-14T10:14:17.727Z,0.15
2024-01-14T10:19:22.024Z,0.06
2024-01-14T10:24:26.446Z,-0.01
2024-01-14T10:29:30.416Z,-0.03
2024-01-14T10:34:35.137Z,-0.02
2024-01-14T10:39:39.796Z,-0.02
2024-01-14T10:44:42.914Z,0.02
2024-01-14T10:49:48.782Z,0.06
2024-01-14T10:54:55.090Z,0.20
2024-01-14T11:00:00.155Z,0.31
2024-01-14T11:05:08.152Z,0.48
2024-01-14T11:10:15.820Z,0.16
2024-01-14T11:15:26.104Z,0.09
2024-01-14T11:20:45.571Z,0.08
2024-01-14T11:25:58.326Z,0.08
2024-01-14T11:31:02.842Z,0.12
2024-01-14T11:36:08.932Z,0.29
2024-01-14T11:41:30.114Z,0.50
2024-01-14T11:46:41.482Z,0.34
2024-01-14T11:51:58.415Z,0.49
2024-01-14T11:57:23.735Z,0.91
2024-01-14T12:02:26.713Z,1.21
2024-01-14T12:07:31.540Z,1.04
2024-01-14T12:12:39.044Z,1.03
2024-01-14T12:17:42.228Z,1.00
2024-01-14T12:22:46.714Z,0.83
2024-01-14T12:27:49.783Z,1.02
2024-01-14T12:32:52.745Z,0.82
2024-01-14T12:37:57.813Z,0.90
2024-01-14T12:43:03.580Z,0.62
2024-01-14T12:48:08.127Z,0.80
2024-01-14T12:53:15.249Z,0.81
2024-01-14T12:58:18.462Z,0.89
2024-01-14T13:03:22.855Z,0.79
2024-01-14T13:08:27.222Z,0.74
2024-01-14T13:13:32.879Z,0.73
2024-01-14T13:18:35.922Z,0.67
2024-01-14T13:23:40.346Z,0.49
2024-01-14T13:28:44.146Z,0.52
2024-01-14T13:33:54.433Z,0.48
2024-01-14T13:39:10.521Z,0.47
2024-01-14T13:44:17.749Z,0.39
2024-01-14T13:49:21.836Z,0.49
2024-01-14T13:54:26.277Z,0.53
2024-01-14T13:59:30.164Z,0.56
2024-01-14T14:04:33.521Z,0.66
2024-01-14T14:09:38.024Z,0.70
2024-01-14T14:14:41.400Z,0.61
2024-01-14T14:19:44.375Z,0.61
2024-01-14T14:24:49.164Z,0.58
2024-01-14T14:29:52.788Z,0.32
2024-01-14T14:34:57.509Z,0.31
2024-01-14T14:40:02.108Z,0.13
2024-01-14T14:45:06.014Z,0.09
2024-01-14T14:50:10.904Z,0.03
2024-01-14T14:55:15.257Z,-0.03
2024-01-14T15:00:20.518Z,-0.08
2024-01-14T15:05:24.061Z,-0.13
2024-01-14T15:10:29.515Z,-0.16
2024-01-14T15:15:32.656Z,-0.28
2024-01-14T15:20:37.056Z,-0.32
2024-01-14T15:25:41.388Z,-0.35
2024-01-14T15:30:53.361Z,-0.37
2024-01-14T15:36:08.426Z,-0.44
2024-01-14T15:41:14.560Z,-0.58
2024-01-14T15:46:19.620Z,-0.58
2024-01-14T15:51:24.161Z,-0.59
2024-01-14T15:56:28.801Z,-0.71
2024-01-14T16:01:32.977Z,-0.79
2024-01-14T16:06:36.132Z,-0.86
2024-01-14T16:11:40.476Z,-0.89
2024-01-14T16:16:44.345Z,-0.98
2024-01-14T16:21:48.374Z,-1.12
2024-01-14T16:26:53.213Z,-1.24
2024-01-14T16:31:59.734Z,-1.31
2024-01-14T16:37:02.772Z,-1.39
2024-01-14T16:42:09.583Z,-1.46
2024-01-14T16:47:15.157Z,-1.51
2024-01-14T16:52:18.138Z,-1.54
2024-01-14T16:57:22.519Z,-1.57
2024-01-14T17:02:27.344Z,-1.68
2024-01-14T17:07:31.379Z,-1.70
2024-01-14T17:12:36.131Z,-1.64
2024-01-14T17:17:39.132Z,-1.72
2024-01-14T17:22:42.230Z,-1.72
2024-01-14T17:27:46.501Z,-1.75
2024-01-14T17:32:49.644Z,-1.73
2024-01-14T17:37:53.608Z,-1.84
2024-01-14T17:42:58.928Z,-1.84
2024-01-14T17:48:02.039Z,-1.91
2024-01-14T17:53:06.777Z,-1.90
2024-01-14T17:58:12.260Z,-1.92
2024-01-14T18:03:16.852Z,-1.94
2024-01-14T18:08:19.768Z,-1.93
2024-01-14T18:13:25.797Z,-1.94
2024-01-14T18:18:29.275Z,-1.97
2024-01-14T18:23:34.385Z,-1.98
2024-01-14T18:28:38.802Z,-1.91
2024-01-14T18:33:44.637Z,-1.89
2024-01-14T18:38:48.961Z,-1.93
2024-01-14T18:43:53.646Z,-2.01
2024-01-14T18:48:56.562Z,-2.00
2024-01-14T18:54:00.150Z,-1.98
2024-01-14T18:59:04.848Z,-1.97
2024-01-14T19:04:08.188Z,-2.03
2024-01-14T19:09:12.151Z,-2.01
2024-01-14T19:14:16.468Z,-1.98
2024-01-14T19:19:22.952Z,-2.05
2024-01-14T19:24:26.389Z,-2.02
2024-01-14T19:29:31.105Z,-2.09
2024-01-14T19:34:34.224Z,-2.11
2024-01-14T19:39:40.740Z,-2.07
2024-01-14T19:44:46.064Z,-2.08
2024-01-14T19:49:49.304Z,-2.04
2024-01-14T19:54:53.846Z,-2.01
2024-01-14T19:59:58.360Z,-1.90
2024-01-14T20:05:01.309Z,-1.92
2024-01-14T20:10:05.061Z,-1.97
2024-01-14T20:15:12.287Z,-2.00
2024-01-14T20:20:15.640Z,-1.96
2024-01-14T20:25:18.636Z,-1.92
2024-01-14T20:30:23.972Z,-1.96
2024-01-14T20:35:26.935Z,-1.92
2024-01-14T20:40:30.662Z,-1.91
2024-01-14T20:45:35.188Z,-1.92
2024-01-14T20:50:38.033Z,-1.91
2024-01-14T20:55:40.929Z,-1.92
2024-01-14T21:00:45.323Z,-1.98
2024-01-14T21:05:50.178Z,-1.96
2024-01-14T21:10:53.156Z,-1.97
2024-01-14T21:15:57.477Z,-2.00
2024-01-14T21:21:00.461Z,-2.01
2024-01-14T21:26:03.501Z,-1.96
2024-01-14T21:31:08.137Z,-2.00
2024-01-14T21:36:12.164Z,-1.96
2024-01-14T21:41:18.322Z,-1.96
2024-01-14T21:46:22.939Z,-1.96
2024-01-14T21:51:27.475Z,-1.98
2024-01-14T21:56:30.319Z,-2.01
2024-01-14T22:01:34.720Z,-2.02
2024-01-14T22:06:37.645Z,-2.09
2024-01-14T22:11:41.140Z,-2.11
2024-01-14T22:16:46.311Z,-2.14
2024-01-14T22:21:49.301Z,-2.19
2024-01-14T22:26:52.352Z,-2.21
2024-01-14T22:31:57.946Z,-2.20
2024-01-14T22:37:00.955Z,-2.23
2024-01-14T22:42:04.669Z,-2.21
2024-01-14T22:47:08.964Z,-2.27
2024-01-14T22:52:11.985Z,-2.22
2024-01-14T22:57:14.970Z,-2.21
2024-01-14T23:02:19.347Z,-2.20
2024-01-14T23:07:22.219Z,-2.25
2024-01-14T23:12:27.269Z,-2.24
2024-01-14T23:17:31.697Z,-2.22
2024-01-14T23:22:34.952Z,-2.24
2024-01-14T23:27:37.791Z,-2.25
2024-01-14T23:32:42.069Z,-2.23
2024-01-14T23:37:46.553Z,-2.20
2024-01-14T23:42:49.437Z,-2.20
2024-01-14T23:47:53.671Z,-2.19
2024-01-14T23:52:56.597Z,-2.21
2024-01-14T23:57:59.537Z,-2.19
